createdAt,value
2019-02-25T00:01:47.643Z,2.87
2019-02-25T00:04:16.327Z,2.33
2019-02-25T00:06:44.993Z,2.57
2019-02-25T00:09:13.675Z,2.87
2019-02-25T00:11:42.375Z,3.00
2019-02-25T00:14:10.865Z,4.67
2019-02-25T00:16:39.513Z,3.77
2019-02-25T00:19:08.196Z,3.67
2019-02-25T00:21:36.850Z,2.20
2019-02-25T00:24:05.546Z,3.97
2019-02-25T00:26:34.207Z,3.27
2019-02-25T00:29:22.172Z,2.70
2019-02-25T00:31:50.822Z,2.53
2019-02-25T00:34:19.571Z,3.30
2019-02-25T00:36:48.208Z,2.67
2019-02-25T00:39:16.902Z,2.40
2019-02-25T00:42:04.805Z,3.60
2019-02-25T00:44:33.481Z,2.43
2019-02-25T00:47:02.148Z,3.20
2019-02-25T00:49:30.795Z,3.63
2019-02-25T00:51:59.484Z,4.37
2019-02-25T00:54:28.132Z,4.27
2019-02-25T00:56:56.823Z,3.23
2019-02-25T00:59:25.421Z,5.67
2019-02-25T01:01:54.086Z,2.80
2019-02-25T01:04:22.724Z,3.93
2019-02-25T01:06:51.450Z,2.60
2019-02-25T01:09:20.088Z,4.30
2019-02-25T01:11:48.787Z,4.20
2019-02-25T01:14:17.489Z,3.87
2019-02-25T01:16:46.131Z,4.17
2019-02-25T01:19:14.840Z,5.63
2019-02-25T01:21:43.504Z,5.07
2019-02-25T01:24:12.173Z,3.07
2019-02-25T01:26:40.765Z,2.67
2019-02-25T01:29:09.439Z,2.97
2019-02-25T01:31:38.068Z,4.63
2019-02-25T01:34:06.785Z,3.30
2019-02-25T01:36:35.433Z,4.80
2019-02-25T01:41:58.893Z,2.80
2019-02-25T01:44:27.482Z,3.33
2019-02-25T01:46:56.108Z,4.03
2019-02-25T01:49:24.744Z,4.07
2019-02-25T01:51:53.330Z,2.87
2019-02-25T01:54:22.027Z,2.93
2019-02-25T01:56:50.785Z,4.03
2019-02-25T01:59:19.420Z,3.40
2019-02-25T02:01:48.114Z,2.43
2019-02-25T02:04:16.694Z,3.47
2019-02-25T02:06:45.336Z,5.50
2019-02-25T02:09:14.008Z,5.37
2019-02-25T02:11:42.675Z,3.50
2019-02-25T02:14:11.303Z,4.33
2019-02-25T02:16:59.190Z,2.80
2019-02-25T02:20:07.669Z,3.03
2019-02-25T02:22:36.340Z,6.57
2019-02-25T02:27:59.457Z,5.77
2019-02-25T02:30:28.157Z,2.93
2019-02-25T02:32:56.889Z,3.77
2019-02-25T02:35:25.530Z,3.70
2019-02-25T02:37:54.147Z,4.73
2019-02-25T02:40:22.819Z,3.90
2019-02-25T02:43:10.772Z,3.37
2019-02-25T02:46:19.233Z,4.17
2019-02-25T02:49:27.691Z,4.93
2019-02-25T02:51:56.353Z,2.70
2019-02-25T02:54:25.035Z,3.37
2019-02-25T02:56:53.667Z,4.07
2019-02-25T02:59:22.380Z,3.97
2019-02-25T03:01:51.034Z,4.53
2019-02-25T03:06:58.874Z,2.97
2019-02-25T03:09:27.518Z,3.63
2019-02-25T03:11:56.149Z,5.70
2019-02-25T03:14:24.810Z,5.70
2019-02-25T03:16:53.630Z,5.23
2019-02-25T03:19:22.220Z,4.30
2019-02-25T03:21:50.847Z,5.17
2019-02-25T03:24:19.422Z,4.00
2019-02-25T03:26:48.094Z,3.27
2019-02-25T03:29:16.775Z,4.80
2019-02-25T03:31:45.441Z,3.40
2019-02-25T03:34:14.126Z,6.00
2019-02-25T03:36:42.823Z,4.23
2019-02-25T03:39:11.532Z,3.83
2019-02-25T03:41:40.183Z,4.53
2019-02-25T03:44:08.882Z,3.50
2019-02-25T03:46:37.471Z,3.10
2019-02-25T03:49:06.116Z,3.53
2019-02-25T03:51:34.800Z,4.03
2019-02-25T03:54:03.446Z,3.07
2019-02-25T03:56:32.157Z,5.83
2019-02-25T03:59:00.858Z,4.23
2019-02-25T04:01:29.537Z,3.27
2019-02-25T04:03:58.229Z,6.33
2019-02-25T04:06:27.123Z,3.97
2019-02-25T04:08:55.806Z,3.57
2019-02-25T04:11:24.524Z,4.57
2019-02-25T04:13:53.159Z,6.03
2019-02-25T04:16:21.928Z,4.20
2019-02-25T04:18:50.616Z,6.83
2019-02-25T04:21:19.305Z,7.90
2019-02-25T04:23:47.897Z,7.10
2019-02-25T04:26:35.772Z,4.67
2019-02-25T04:29:04.412Z,4.03
2019-02-25T04:31:33.246Z,6.00
2019-02-25T04:34:01.945Z,3.20
2019-02-25T04:36:30.826Z,3.63
2019-02-25T04:38:59.616Z,2.93
2019-02-25T04:41:28.193Z,4.90
2019-02-25T04:43:56.905Z,3.23
2019-02-25T04:46:25.549Z,8.80
2019-02-25T04:48:54.227Z,4.37
2019-02-25T04:51:22.899Z,4.10
2019-02-25T04:53:51.590Z,2.83
2019-02-25T04:56:39.487Z,4.77
2019-02-25T04:59:08.176Z,3.00
2019-02-25T05:01:36.737Z,3.70
2019-02-25T05:04:05.390Z,6.43
2019-02-25T05:06:34.024Z,4.40
2019-02-25T05:09:02.775Z,2.80
2019-02-25T05:11:50.621Z,5.60
2019-02-25T05:14:19.165Z,3.10
2019-02-25T05:16:47.809Z,3.80
2019-02-25T05:19:35.690Z,4.87
2019-02-25T05:22:04.392Z,3.90
2019-02-25T05:24:33.054Z,4.23
2019-02-25T05:27:01.734Z,4.20
2019-02-25T05:29:49.544Z,2.97
2019-02-25T05:32:18.242Z,3.53
2019-02-25T05:34:46.871Z,5.57
2019-02-25T05:37:15.511Z,4.50
2019-02-25T05:39:44.022Z,2.80
2019-02-25T05:42:32.037Z,2.53
2019-02-25T05:45:00.733Z,4.50
2019-02-25T05:47:29.420Z,6.83
2019-02-25T05:50:17.440Z,3.60
2019-02-25T05:56:05.624Z,3.50
2019-02-25T05:58:34.224Z,4.37
2019-02-25T06:01:22.179Z,3.93
2019-02-25T06:03:50.843Z,3.57
2019-02-25T06:09:13.810Z,3.53
2019-02-25T06:11:42.504Z,2.80
2019-02-25T06:14:11.132Z,3.63
2019-02-25T06:16:39.825Z,3.77
2019-02-25T06:19:08.583Z,4.43
2019-02-25T06:21:56.620Z,2.27
2019-02-25T06:24:25.278Z,3.03
2019-02-25T06:26:53.979Z,2.57
2019-02-25T06:29:22.666Z,3.13
2019-02-25T06:31:51.302Z,13.23
2019-02-25T06:34:20.048Z,7.37
2019-02-25T06:36:48.697Z,5.80
2019-02-25T06:39:17.457Z,4.90
2019-02-25T06:42:05.377Z,3.73
2019-02-25T06:44:53.332Z,4.63
2019-02-25T06:47:22.044Z,5.37
2019-02-25T06:49:50.723Z,4.13
2019-02-25T06:52:20.065Z,3.47
2019-02-25T06:54:49.847Z,4.80
2019-02-25T06:57:37.737Z,6.77
2019-02-25T07:00:27.095Z,4.60
2019-02-25T07:02:55.748Z,3.60
2019-02-25T07:06:02.747Z,6.33
2019-02-25T07:08:50.588Z,6.00
2019-02-25T07:11:38.386Z,5.13
2019-02-25T07:25:06.320Z,3.73
2019-02-25T07:27:54.020Z,4.27
2019-02-25T07:30:41.852Z,4.17
2019-02-25T07:33:29.662Z,4.20
2019-02-25T07:36:17.454Z,3.33
2019-02-25T07:39:05.214Z,2.70
2019-02-25T07:44:32.594Z,2.57
2019-02-25T07:50:00.324Z,3.77
2019-02-25T07:52:48.166Z,2.57
2019-02-25T07:55:35.897Z,2.60
2019-02-25T08:01:12.961Z,2.07
2019-02-25T08:04:19.955Z,4.13
2019-02-25T08:07:07.722Z,2.87
2019-02-25T08:15:10.797Z,3.67
2019-02-25T08:23:42.421Z,4.20
2019-02-25T08:29:05.599Z,3.23
2019-02-25T08:34:42.682Z,3.87
2019-02-25T08:37:51.157Z,2.57
2019-02-25T08:40:59.792Z,3.83
2019-02-25T08:43:47.506Z,3.87
2019-02-25T08:46:35.244Z,4.10
2019-02-25T08:49:23.035Z,3.30
2019-02-25T08:51:51.848Z,3.87
2019-02-25T08:54:20.461Z,3.67
2019-02-25T08:56:49.149Z,2.50
2019-02-25T08:59:17.800Z,2.27
2019-02-25T09:01:46.507Z,2.40
2019-02-25T09:04:15.217Z,2.47
2019-02-25T09:06:43.897Z,8.87
2019-02-25T09:09:12.653Z,3.13
2019-02-25T09:11:41.354Z,3.67
2019-02-25T09:14:09.991Z,2.50
2019-02-25T09:16:38.697Z,2.47
2019-02-25T09:19:07.391Z,1.83
2019-02-25T09:21:35.964Z,2.60
2019-02-25T09:24:04.606Z,2.13
2019-02-25T09:26:33.300Z,2.97
2019-02-25T09:29:01.876Z,2.40
2019-02-25T09:31:30.584Z,2.70
2019-02-25T09:33:59.231Z,2.50
2019-02-25T09:36:27.943Z,2.77
2019-02-25T09:38:56.853Z,2.57
2019-02-25T09:41:29.930Z,1.10
2019-02-25T09:43:57.420Z,1.90
2019-02-25T09:46:26.196Z,4.03
2019-02-25T09:48:54.838Z,3.20
2019-02-25T09:51:23.456Z,3.03
2019-02-25T09:53:52.104Z,1.60
2019-02-25T09:56:20.672Z,4.43
2019-02-25T09:58:49.361Z,2.13
2019-02-25T10:01:18.012Z,1.73
2019-02-25T10:03:46.601Z,3.73
2019-02-25T10:06:15.288Z,3.13
2019-02-25T10:08:43.929Z,2.67
2019-02-25T10:11:12.641Z,1.57
2019-02-25T10:13:41.221Z,3.03
2019-02-25T10:16:09.909Z,3.43
2019-02-25T10:18:38.602Z,2.27
2019-02-25T10:21:07.294Z,4.10
2019-02-25T10:23:35.962Z,3.13
2019-02-25T10:26:23.893Z,1.97
2019-02-25T10:28:52.578Z,2.23
2019-02-25T10:31:21.250Z,12.47
2019-02-25T10:33:50.847Z,1.87
2019-02-25T10:36:20.311Z,2.63
2019-02-25T10:38:49.014Z,4.33
2019-02-25T10:41:19.703Z,2.80
2019-02-25T10:43:49.913Z,3.10
2019-02-25T10:46:18.518Z,4.00
2019-02-25T10:48:47.869Z,2.23
2019-02-25T10:51:17.511Z,2.63
2019-02-25T10:53:47.850Z,4.43
2019-02-25T10:56:57.862Z,2.07
2019-02-25T10:59:26.762Z,1.80
2019-02-25T11:01:55.439Z,1.50
2019-02-25T11:04:26.117Z,2.23
2019-02-25T11:06:54.517Z,2.73
2019-02-25T11:09:43.963Z,0.90
2019-02-25T11:12:12.942Z,6.13
2019-02-25T11:14:43.375Z,2.03
2019-02-25T11:17:13.768Z,3.10
2019-02-25T11:19:42.502Z,2.40
2019-02-25T11:22:12.122Z,1.47
2019-02-25T11:24:41.690Z,1.00
2019-02-25T11:29:46.729Z,1.93
2019-02-25T11:32:17.338Z,3.57
2019-02-25T11:34:46.638Z,3.40
2019-02-25T11:37:16.727Z,2.87
2019-02-25T11:39:45.738Z,1.50
2019-02-25T11:42:17.701Z,2.43
2019-02-25T11:44:44.655Z,1.03
2019-02-25T11:47:13.333Z,1.30
2019-02-25T11:49:41.999Z,3.33
2019-02-25T11:52:10.679Z,2.23
2019-02-25T11:54:39.393Z,1.27
2019-02-25T11:57:08.109Z,0.83
2019-02-25T11:59:36.878Z,2.30
2019-02-25T12:02:05.663Z,1.27
2019-02-25T12:04:34.335Z,4.23
2019-02-25T12:07:03.033Z,1.53
2019-02-25T12:09:31.694Z,1.83
2019-02-25T12:12:00.395Z,1.93
2019-02-25T12:14:29.030Z,1.30
2019-02-25T12:16:57.728Z,1.93
2019-02-25T12:19:26.391Z,1.17
2019-02-25T12:21:55.045Z,0.83
2019-02-25T12:24:23.726Z,1.67
2019-02-25T12:26:52.494Z,1.17
2019-02-25T12:29:21.145Z,3.17
2019-02-25T12:31:49.846Z,1.30
2019-02-25T12:34:18.537Z,6.30
2019-02-25T12:36:47.246Z,4.50
2019-02-25T12:42:24.072Z,0.87
2019-02-25T12:44:52.768Z,4.57
2019-02-25T12:47:21.524Z,2.13
2019-02-25T12:49:50.226Z,2.00
2019-02-25T12:52:18.887Z,2.50
2019-02-25T12:54:47.468Z,2.67
2019-02-25T12:57:16.109Z,2.30
2019-02-25T12:59:44.754Z,1.93
2019-02-25T13:02:13.487Z,3.90
2019-02-25T13:04:42.211Z,1.33
2019-02-25T13:07:10.927Z,3.77
2019-02-25T13:09:39.561Z,3.03
2019-02-25T13:12:08.202Z,2.07
2019-02-25T13:14:36.921Z,4.13
2019-02-25T13:17:05.582Z,3.00
2019-02-25T13:19:34.268Z,2.43
2019-02-25T13:22:02.954Z,3.43
2019-02-25T13:24:32.673Z,3.10
2019-02-25T13:27:03.167Z,2.43
2019-02-25T13:29:32.401Z,2.93
2019-02-25T13:32:01.094Z,3.87
2019-02-25T13:34:29.674Z,1.30
2019-02-25T13:36:58.389Z,1.27
2019-02-25T13:39:27.211Z,6.03
2019-02-25T13:41:55.894Z,3.83
2019-02-25T13:44:24.608Z,2.03
2019-02-25T13:46:53.260Z,2.60
2019-02-25T13:49:21.954Z,2.13
2019-02-25T13:51:50.648Z,3.00
2019-02-25T13:54:19.377Z,2.10
2019-02-25T13:56:48.071Z,0.97
2019-02-25T13:59:16.723Z,3.63
2019-02-25T14:01:45.357Z,1.23
2019-02-25T14:04:14.042Z,2.03
2019-02-25T14:06:42.730Z,1.63
2019-02-25T14:11:46.627Z,1.83
2019-02-25T14:14:15.623Z,2.90
2019-02-25T14:16:44.268Z,1.70
2019-02-25T14:19:12.976Z,4.93
2019-02-25T14:21:41.638Z,4.13
2019-02-25T14:24:10.326Z,4.07
2019-02-25T14:26:38.973Z,4.30
2019-02-25T14:29:07.949Z,3.80
2019-02-25T14:31:36.566Z,3.73
2019-02-25T14:34:05.361Z,1.53
2019-02-25T14:36:34.026Z,2.50
2019-02-25T14:39:04.492Z,4.33
2019-02-25T14:41:45.556Z,3.73
2019-02-25T14:44:03.990Z,3.07
2019-02-25T14:46:32.783Z,2.30
2019-02-25T14:49:01.487Z,2.93
2019-02-25T14:51:30.163Z,6.17
2019-02-25T14:53:58.801Z,4.13
2019-02-25T14:56:27.461Z,4.63
2019-02-25T14:58:56.136Z,1.80
2019-02-25T15:01:25.722Z,2.17
2019-02-25T15:03:55.954Z,3.80
2019-02-25T15:06:26.370Z,9.50
2019-02-25T15:08:57.504Z,3.53
2019-02-25T15:11:26.415Z,3.87
2019-02-25T15:13:55.121Z,3.80
2019-02-25T15:16:23.753Z,4.90
2019-02-25T15:18:52.471Z,3.43
2019-02-25T15:21:21.108Z,2.87
2019-02-25T15:23:49.786Z,3.53
2019-02-25T15:26:19.877Z,2.87
2019-02-25T15:28:51.682Z,5.63
2019-02-25T15:31:19.487Z,2.77
2019-02-25T15:33:48.252Z,2.70
2019-02-25T15:36:17.872Z,4.07
2019-02-25T15:38:47.389Z,2.53
2019-02-25T15:41:16.168Z,2.47
2019-02-25T15:43:44.919Z,2.50
2019-02-25T15:46:14.552Z,2.87
2019-02-25T15:48:44.314Z,2.10
2019-02-25T15:51:12.986Z,3.30
2019-02-25T15:53:46.210Z,3.27
2019-02-25T15:56:13.992Z,2.40
2019-02-25T15:58:42.661Z,3.17
2019-02-25T16:04:07.074Z,3.70
2019-02-25T16:06:37.692Z,4.37
2019-02-25T16:09:46.439Z,6.23
2019-02-25T16:12:15.179Z,7.43
2019-02-25T16:14:44.351Z,8.57
2019-02-25T16:17:37.266Z,13.40
2019-02-25T16:23:12.984Z,8.00
2019-02-25T16:25:42.539Z,8.27
2019-02-25T16:28:14.379Z,6.90
2019-02-25T16:30:42.400Z,7.17
2019-02-25T16:33:14.358Z,8.60
2019-02-25T16:35:43.511Z,10.83
2019-02-25T16:38:12.996Z,7.73
2019-02-25T16:40:41.711Z,9.67
2019-02-25T16:43:19.003Z,9.50
2019-02-25T16:45:47.905Z,8.07
2019-02-25T16:48:17.244Z,11.87
2019-02-25T16:50:47.174Z,16.27
2019-02-25T16:53:17.961Z,16.03
2019-02-25T16:55:47.401Z,16.10
2019-02-25T16:58:17.117Z,19.90
2019-02-25T17:00:46.242Z,17.93
2019-02-25T17:03:16.120Z,23.10
2019-02-25T17:05:47.755Z,13.77
2019-02-25T17:08:35.317Z,18.60
2019-02-25T17:11:04.106Z,16.73
2019-02-25T17:13:34.802Z,15.47
2019-02-25T17:19:00.673Z,16.20
2019-02-25T17:21:29.327Z,18.10
2019-02-25T17:24:00.123Z,12.90
2019-02-25T17:26:28.628Z,14.07
2019-02-25T17:28:57.439Z,13.43
2019-02-25T17:31:26.102Z,14.43
2019-02-25T17:33:55.830Z,15.77
2019-02-25T17:36:25.208Z,13.17
2019-02-25T17:38:54.145Z,9.07
2019-02-25T17:41:22.837Z,8.77
2019-02-25T17:43:51.526Z,9.40
2019-02-25T17:46:20.244Z,9.60
2019-02-25T17:48:49.041Z,9.40
2019-02-25T17:51:18.575Z,9.63
2019-02-25T17:53:49.945Z,6.53
2019-02-25T17:56:20.691Z,10.93
2019-02-25T17:58:49.185Z,10.23
2019-02-25T18:01:19.710Z,10.73
2019-02-25T18:03:48.398Z,9.10
2019-02-25T18:06:17.062Z,7.07
2019-02-25T18:08:45.757Z,10.30
2019-02-25T18:11:15.770Z,8.07
2019-02-25T18:13:46.656Z,8.57
2019-02-25T18:16:16.805Z,8.33
2019-02-25T18:19:05.110Z,7.33
2019-02-25T18:21:34.059Z,10.17
2019-02-25T18:24:04.364Z,8.53
2019-02-25T18:26:33.389Z,10.00
2019-02-25T18:29:22.678Z,7.27
2019-02-25T18:31:51.733Z,11.37
2019-02-25T18:34:20.446Z,8.33
2019-02-25T18:36:51.047Z,10.63
2019-02-25T18:39:20.951Z,14.40
2019-02-25T18:41:51.073Z,7.93
2019-02-25T18:44:20.623Z,11.30
2019-02-25T18:46:50.337Z,11.57
2019-02-25T18:49:19.844Z,9.53
2019-02-25T18:51:48.476Z,15.30
2019-02-25T18:54:19.043Z,11.97
2019-02-25T18:56:47.633Z,11.53
2019-02-25T18:59:20.162Z,13.53
2019-02-25T19:01:49.751Z,18.07
2019-02-25T19:04:19.756Z,12.77
2019-02-25T19:06:49.620Z,16.23
2019-02-25T19:09:58.242Z,9.33
2019-02-25T19:12:26.968Z,10.90
2019-02-25T19:14:57.590Z,8.63
2019-02-25T19:17:27.262Z,11.07
2019-02-25T19:19:56.751Z,6.50
2019-02-25T19:25:00.648Z,6.50
2019-02-25T19:27:31.164Z,10.00
2019-02-25T19:30:00.795Z,10.10
2019-02-25T19:32:30.497Z,8.03
2019-02-25T19:35:01.924Z,5.33
2019-02-25T19:37:32.965Z,6.67
2019-02-25T19:40:00.393Z,7.37
2019-02-25T19:42:29.585Z,9.00
2019-02-25T19:45:02.692Z,8.30
2019-02-25T19:47:30.797Z,9.60
2019-02-25T19:50:02.047Z,6.90
2019-02-25T19:52:34.739Z,4.93
2019-02-25T19:55:01.341Z,10.10
2019-02-25T19:57:30.786Z,6.60
2019-02-25T20:00:02.871Z,6.17
2019-02-25T20:02:32.231Z,6.00
2019-02-25T20:05:01.438Z,8.23
2019-02-25T20:07:31.462Z,4.80
2019-02-25T20:10:00.679Z,7.17
2019-02-25T20:12:29.371Z,7.03
2019-02-25T20:14:58.045Z,5.30
2019-02-25T20:17:28.867Z,6.83
2019-02-25T20:19:57.423Z,6.77
2019-02-25T20:22:26.148Z,5.37
2019-02-25T20:24:55.746Z,7.47
2019-02-25T20:27:25.448Z,3.73
2019-02-25T20:29:55.875Z,4.50
2019-02-25T20:32:24.866Z,4.23
2019-02-25T20:34:55.010Z,5.80
2019-02-25T20:37:25.158Z,4.13
2019-02-25T20:39:54.566Z,4.23
2019-02-25T20:42:24.426Z,6.43
2019-02-25T20:44:55.306Z,5.40
2019-02-25T20:47:24.334Z,6.43
2019-02-25T20:49:55.651Z,6.17
2019-02-25T20:52:23.432Z,5.53
2019-02-25T20:54:52.180Z,6.13
2019-02-25T20:57:20.871Z,4.87
2019-02-25T20:59:50.939Z,4.50
2019-02-25T21:02:21.171Z,4.20
2019-02-25T21:04:52.147Z,5.73
2019-02-25T21:07:20.958Z,3.43
2019-02-25T21:13:28.556Z,4.93
2019-02-25T21:15:55.108Z,4.87
2019-02-25T21:18:24.652Z,5.03
2019-02-25T21:20:54.338Z,5.40
2019-02-25T21:23:22.988Z,5.90
2019-02-25T21:26:11.598Z,4.43
2019-02-25T21:28:42.728Z,3.40
2019-02-25T21:31:13.917Z,3.27
2019-02-25T21:33:44.824Z,5.77
2019-02-25T21:36:12.503Z,4.33
2019-02-25T21:39:00.474Z,5.70
2019-02-25T21:41:29.246Z,5.07
2019-02-25T21:43:59.185Z,6.13
2019-02-25T21:46:29.101Z,3.30
2019-02-25T21:49:01.612Z,5.73
2019-02-25T21:51:32.634Z,3.10
2019-02-25T21:54:02.149Z,6.00
2019-02-25T21:56:30.438Z,6.77
2019-02-25T21:58:59.208Z,5.43
2019-02-25T22:01:27.909Z,6.10
2019-02-25T22:03:56.678Z,7.33
2019-02-25T22:06:26.825Z,6.53
2019-02-25T22:08:56.770Z,4.73
2019-02-25T22:11:26.258Z,4.83
2019-02-25T22:14:16.302Z,6.57
2019-02-25T22:16:44.850Z,4.80
2019-02-25T22:19:35.045Z,6.53
2019-02-25T22:22:04.808Z,4.50
2019-02-25T22:24:34.412Z,6.10
2019-02-25T22:27:03.921Z,5.67
2019-02-25T22:29:34.296Z,4.13
2019-02-25T22:32:04.047Z,8.80
2019-02-25T22:34:33.498Z,4.90
2019-02-25T22:37:02.623Z,9.73
2019-02-25T22:39:32.664Z,7.23
2019-02-25T22:42:03.133Z,5.97
2019-02-25T22:44:33.565Z,7.37
2019-02-25T22:47:05.165Z,7.87
2019-02-25T22:49:32.564Z,7.43
2019-02-25T22:52:22.301Z,5.10
2019-02-25T22:54:52.210Z,7.27
2019-02-25T23:00:48.893Z,6.07
2019-02-25T23:03:20.142Z,8.07
2019-02-25T23:05:50.346Z,4.93
2019-02-25T23:08:20.852Z,5.33
2019-02-25T23:10:49.801Z,6.93
2019-02-25T23:13:19.899Z,6.10
2019-02-25T23:15:51.253Z,6.83
2019-02-25T23:18:22.923Z,6.53
2019-02-25T23:20:52.533Z,7.87
2019-02-25T23:23:23.530Z,8.60
2019-02-25T23:26:12.510Z,6.40
2019-02-25T23:28:41.172Z,6.37
2019-02-25T23:31:29.947Z,8.60
2019-02-25T23:33:59.460Z,6.33
2019-02-25T23:36:28.108Z,8.87
2019-02-25T23:41:34.337Z,5.47
2019-02-25T23:44:01.325Z,7.37
2019-02-25T23:46:32.012Z,5.87
2019-02-25T23:49:00.402Z,8.77
2019-02-25T23:51:29.035Z,7.43
2019-02-25T23:53:57.758Z,6.63
2019-02-25T23:56:27.444Z,6.90
2019-02-25T23:58:56.888Z,7.07
